Terminal Aerodrome Forecast
Issued by NWS

Current Version | Previous Version | Text Only | Print | Product List | Glossary On
Versions: 1 2 3 4 5 6 7 8 9 10 11 12 13
000
FTUS44 KLIX 270520
TAFGPT
TAF
KGPT 270520Z 2706/2806 35004KT P6SM SKC
      TEMPO 2710/2713 VRB04KT BKN008
     FM271500 33006KT P6SM SCT040
     FM272000 21005KT P6SM SCT045 BKN200=

USA.gov is the U.S. government's official web portal to all federal, state and local government web resources and services.